createdAt,value
2018-02-25T06:08:03.612Z,5.67
2018-02-25T06:10:35.486Z,5.63
2018-02-25T06:13:07.629Z,5.10
2018-02-25T06:15:39.499Z,5.60
2018-02-25T06:18:11.428Z,4.97
2018-02-25T06:20:44.080Z,5.70
2018-02-25T06:23:16.039Z,5.33
2018-02-25T06:25:47.907Z,5.17
2018-02-25T06:28:19.860Z,6.03
2018-02-25T06:30:51.811Z,5.57
2018-02-25T06:33:23.699Z,5.37
2018-02-25T06:35:55.580Z,5.97
2018-02-25T06:38:28.312Z,6.03
2018-02-25T06:41:00.182Z,5.17
2018-02-25T06:43:32.075Z,5.20
2018-02-25T06:46:04.816Z,4.93
2018-02-25T06:48:36.704Z,6.10
2018-02-25T06:51:09.355Z,6.00
2018-02-25T06:53:41.237Z,5.20
2018-02-25T06:56:13.178Z,5.03
2018-02-25T06:58:45.071Z,5.60
2018-02-25T07:01:17.716Z,5.30
2018-02-25T07:03:49.608Z,5.07
2018-02-25T07:06:22.252Z,5.53
2018-02-25T07:08:54.215Z,5.40
2018-02-25T07:11:26.083Z,5.60
2018-02-25T07:13:57.967Z,5.33
2018-02-25T07:16:30.621Z,5.53
2018-02-25T07:19:02.511Z,4.83
2018-02-25T07:21:35.160Z,5.40
2018-02-25T07:24:07.050Z,5.13
2018-02-25T07:26:39.940Z,5.20
2018-02-25T07:29:12.836Z,5.72
2018-02-25T07:31:44.748Z,5.00
2018-02-25T07:34:16.587Z,6.05
2018-02-25T07:36:48.586Z,4.83
2018-02-25T07:39:20.460Z,4.70
2018-02-25T07:41:53.095Z,5.33
2018-02-25T07:44:25.151Z,4.77
2018-02-25T07:46:57.126Z,5.50
2018-02-25T07:49:29.079Z,4.93
2018-02-25T07:52:00.943Z,5.10
2018-02-25T07:54:32.913Z,4.90
2018-02-25T07:57:04.775Z,4.67
2018-02-25T07:59:36.729Z,5.80
2018-02-25T08:02:08.599Z,5.07
2018-02-25T08:04:40.816Z,5.33
2018-02-25T08:07:12.976Z,5.87
2018-02-25T08:09:44.862Z,5.13
2018-02-25T08:12:17.111Z,5.70
2018-02-25T08:14:48.996Z,5.63
2018-02-25T08:17:20.869Z,5.70
2018-02-25T08:19:52.764Z,5.50
2018-02-25T08:22:24.647Z,5.27
2018-02-25T08:24:57.371Z,5.80
2018-02-25T08:27:29.338Z,5.33
2018-02-25T08:30:01.343Z,4.93
2018-02-25T08:32:33.180Z,4.90
2018-02-25T08:35:05.115Z,5.60
2018-02-25T08:37:37.079Z,4.97
2018-02-25T08:40:08.982Z,5.40
2018-02-25T08:42:41.619Z,6.00
2018-02-25T08:45:13.591Z,5.70
2018-02-25T08:47:45.458Z,5.43
2018-02-25T08:50:17.401Z,5.10
2018-02-25T08:52:49.271Z,5.37
2018-02-25T08:55:21.219Z,5.80
2018-02-25T08:57:53.183Z,4.53
2018-02-25T09:00:25.147Z,5.90
2018-02-25T09:02:57.266Z,5.60
2018-02-25T09:05:29.201Z,5.73
2018-02-25T09:08:01.923Z,6.20
2018-02-25T09:10:33.830Z,5.27
2018-02-25T09:13:05.707Z,5.00
2018-02-25T09:15:38.471Z,5.23
2018-02-25T09:18:10.460Z,4.97
2018-02-25T09:20:42.378Z,4.97
2018-02-25T09:23:14.340Z,5.03
2018-02-25T09:25:46.460Z,5.63
2018-02-25T09:28:18.340Z,4.93
2018-02-25T09:30:50.222Z,4.80
2018-02-25T09:33:22.184Z,5.07
2018-02-25T09:35:54.108Z,5.20
2018-02-25T09:38:26.056Z,5.03
2018-02-25T09:40:58.720Z,5.10
2018-02-25T09:43:30.748Z,4.80
2018-02-25T09:46:02.678Z,4.67
2018-02-25T09:48:34.583Z,4.63
2018-02-25T09:51:06.535Z,4.47
2018-02-25T09:53:38.435Z,4.70
2018-02-25T09:56:11.182Z,4.63
2018-02-25T09:58:43.059Z,4.47
2018-02-25T10:01:14.990Z,4.73
2018-02-25T10:03:46.907Z,4.87
2018-02-25T10:06:19.632Z,4.27
2018-02-25T10:08:51.596Z,4.90
2018-02-25T10:11:23.548Z,4.70
2018-02-25T10:13:55.412Z,4.63
2018-02-25T10:16:27.436Z,5.00
2018-02-25T10:18:59.329Z,4.30
2018-02-25T10:21:31.216Z,4.50
2018-02-25T10:24:03.321Z,4.70
2018-02-25T10:26:35.218Z,4.73
2018-02-25T10:29:07.092Z,4.60
2018-02-25T10:31:39.046Z,4.53
2018-02-25T10:34:10.936Z,4.37
2018-02-25T10:36:42.847Z,4.30
2018-02-25T10:39:14.759Z,4.10
2018-02-25T10:41:46.691Z,3.60
2018-02-25T10:44:18.656Z,4.03
2018-02-25T10:46:50.979Z,3.97
2018-02-25T10:49:22.882Z,4.33
2018-02-25T10:51:54.758Z,4.10
2018-02-25T10:54:26.628Z,4.10
2018-02-25T10:56:58.826Z,4.17
2018-02-25T10:59:30.698Z,4.00
2018-02-25T11:02:02.587Z,4.07
2018-02-25T11:04:34.825Z,3.50
2018-02-25T11:07:06.707Z,3.90
2018-02-25T11:09:38.589Z,3.80
2018-02-25T11:12:10.541Z,3.83
2018-02-25T11:14:42.874Z,3.57
2018-02-25T11:17:14.773Z,3.73
2018-02-25T11:19:46.635Z,3.50
2018-02-25T11:22:18.522Z,3.90
2018-02-25T11:24:50.390Z,3.63
2018-02-25T11:27:23.070Z,3.70
2018-02-25T11:29:55.806Z,3.80
2018-02-25T11:32:27.716Z,4.20
2018-02-25T11:35:00.367Z,3.70
2018-02-25T11:37:32.331Z,3.70
2018-02-25T11:40:04.218Z,4.00
2018-02-25T11:42:36.925Z,3.80
2018-02-25T11:45:08.800Z,3.80
2018-02-25T11:47:40.696Z,3.73
2018-02-25T11:50:12.571Z,3.93
2018-02-25T11:52:45.467Z,3.47
2018-02-25T11:55:18.294Z,3.60
2018-02-25T11:57:50.529Z,3.93
2018-02-25T12:00:22.706Z,3.80
2018-02-25T12:02:54.632Z,3.37
2018-02-25T12:05:27.264Z,3.83
2018-02-25T12:07:59.148Z,3.43
2018-02-25T12:10:31.064Z,3.30
2018-02-25T12:13:03.003Z,4.00
2018-02-25T12:15:35.640Z,3.60
2018-02-25T12:18:07.523Z,3.40
2018-02-25T12:20:39.400Z,3.50
2018-02-25T12:23:12.048Z,3.40
2018-02-25T12:25:43.924Z,3.07
2018-02-25T12:28:15.843Z,3.50
2018-02-25T12:30:47.794Z,2.80
2018-02-25T12:33:19.682Z,3.20
2018-02-25T12:35:51.602Z,3.53
2018-02-25T12:38:23.481Z,3.17
2018-02-25T12:40:55.611Z,3.57
2018-02-25T12:43:27.486Z,3.00
2018-02-25T12:45:59.363Z,3.40
2018-02-25T12:48:31.244Z,3.20
2018-02-25T12:51:03.116Z,2.80
2018-02-25T12:53:34.995Z,3.00
2018-02-25T12:56:07.623Z,2.93
2018-02-25T12:58:39.507Z,3.13
2018-02-25T13:01:11.379Z,2.63
2018-02-25T13:03:43.261Z,3.00
2018-02-25T13:06:15.887Z,3.00
2018-02-25T13:08:47.775Z,3.27
2018-02-25T13:11:19.661Z,2.57
2018-02-25T13:13:52.307Z,2.70
2018-02-25T13:16:24.172Z,2.93
2018-02-25T13:18:56.057Z,3.20
2018-02-25T13:21:28.682Z,2.70
2018-02-25T13:24:00.562Z,2.90
2018-02-25T13:26:32.430Z,3.10
2018-02-25T13:29:04.313Z,2.90
2018-02-25T13:31:37.204Z,2.53
2018-02-25T13:34:09.090Z,2.97
2018-02-25T13:36:40.955Z,3.03
2018-02-25T13:39:12.834Z,2.60
2018-02-25T13:41:44.724Z,2.30
2018-02-25T13:44:16.595Z,2.60
2018-02-25T13:46:49.235Z,2.73
2018-02-25T13:49:21.122Z,2.47
2018-02-25T13:51:53.763Z,2.50
2018-02-25T13:54:25.650Z,2.47
2018-02-25T13:56:57.525Z,2.57
2018-02-25T13:59:30.172Z,2.60
2018-02-25T14:02:02.040Z,2.47
2018-02-25T14:04:35.371Z,2.40
2018-02-25T14:07:07.239Z,2.83
2018-02-25T14:09:39.140Z,2.50
2018-02-25T14:12:11.257Z,2.33
2018-02-25T14:14:43.139Z,2.47
2018-02-25T14:17:15.011Z,2.47
2018-02-25T14:19:46.883Z,2.90
2018-02-25T14:22:19.007Z,2.93
2018-02-25T14:24:50.896Z,2.60
2018-02-25T14:27:22.768Z,2.20
2018-02-25T14:29:54.650Z,2.40
2018-02-25T14:32:26.515Z,2.43
2018-02-25T14:34:58.391Z,2.50
2018-02-25T14:37:31.034Z,2.57
2018-02-25T14:40:02.916Z,2.83
2018-02-25T14:42:34.779Z,2.50
2018-02-25T14:45:07.424Z,2.63
2018-02-25T14:47:39.544Z,2.50
2018-02-25T14:50:11.435Z,2.87
2018-02-25T14:52:43.304Z,2.57
2018-02-25T14:55:15.183Z,2.40
2018-02-25T14:57:47.060Z,2.30
2018-02-25T15:00:18.985Z,2.50
2018-02-25T15:02:50.814Z,2.53
2018-02-25T15:05:22.704Z,2.33
2018-02-25T15:07:54.576Z,2.53
2018-02-25T15:10:26.469Z,2.13
2018-02-25T15:12:59.100Z,2.60
2018-02-25T15:15:30.971Z,2.63
2018-02-25T15:18:02.849Z,2.80
2018-02-25T15:20:34.736Z,2.60
2018-02-25T15:23:07.363Z,2.40
2018-02-25T15:25:39.303Z,2.60
2018-02-25T15:28:11.175Z,3.17
2018-02-25T15:30:43.052Z,2.90
2018-02-25T15:33:15.692Z,3.13
2018-02-25T15:35:47.589Z,2.77
2018-02-25T15:38:19.532Z,2.70
2018-02-25T15:40:52.175Z,3.27
2018-02-25T15:43:24.809Z,2.47
2018-02-25T15:45:56.726Z,2.90
2018-02-25T15:48:28.615Z,2.57
2018-02-25T15:51:00.491Z,2.53
2018-02-25T15:53:32.383Z,2.70
2018-02-25T15:56:05.031Z,2.90
2018-02-25T15:58:36.924Z,3.13
2018-02-25T16:01:09.577Z,4.00
2018-02-25T16:03:41.449Z,4.17
2018-02-25T16:06:13.654Z,3.93
2018-02-25T16:08:45.515Z,3.70
2018-02-25T16:11:17.394Z,3.50
2018-02-25T16:13:49.272Z,3.67
2018-02-25T16:16:21.155Z,3.33
2018-02-25T16:18:53.069Z,3.63
2018-02-25T16:21:24.955Z,3.60
2018-02-25T16:23:56.837Z,3.13
2018-02-25T16:26:28.725Z,3.10
2018-02-25T16:29:00.631Z,3.17
2018-02-25T16:31:32.479Z,3.33
2018-02-25T16:34:04.346Z,3.27
2018-02-25T16:36:36.235Z,3.10
2018-02-25T16:39:08.131Z,3.17
2018-02-25T16:41:40.019Z,3.17
2018-02-25T16:44:11.908Z,3.30
2018-02-25T16:46:43.790Z,3.20
2018-02-25T16:49:16.428Z,2.60
2018-02-25T16:51:48.659Z,3.43
2018-02-25T16:54:20.634Z,3.20
2018-02-25T16:56:52.539Z,3.40
2018-02-25T16:59:24.406Z,3.27
2018-02-25T17:01:57.054Z,3.50
2018-02-25T17:04:28.955Z,3.23
2018-02-25T17:07:01.606Z,3.80
2018-02-25T17:09:33.482Z,3.10
2018-02-25T17:12:06.131Z,3.10
2018-02-25T17:14:38.064Z,3.30
2018-02-25T17:17:10.009Z,3.17
2018-02-25T17:19:41.929Z,3.53
2018-02-25T17:22:13.825Z,3.50
2018-02-25T17:24:45.695Z,3.17
2018-02-25T17:27:17.600Z,3.13
2018-02-25T17:29:49.458Z,3.70
2018-02-25T17:32:21.358Z,3.33
2018-02-25T17:34:54.012Z,3.73
2018-02-25T17:37:25.896Z,3.47
2018-02-25T17:39:58.564Z,3.33
2018-02-25T17:42:30.428Z,3.83
2018-02-25T17:45:03.865Z,3.87
2018-02-25T17:47:35.763Z,3.30
2018-02-25T17:50:07.672Z,3.43
2018-02-25T17:52:39.831Z,3.10
2018-02-25T17:55:11.704Z,4.00
2018-02-25T17:57:43.592Z,3.47
2018-02-25T18:00:15.472Z,3.40
2018-02-25T18:02:47.430Z,3.37
2018-02-25T18:05:19.295Z,3.83
2018-02-25T18:07:51.205Z,3.00
2018-02-25T18:10:23.126Z,3.20
2018-02-25T18:12:55.008Z,3.70
2018-02-25T18:15:27.893Z,3.40
2018-02-25T18:17:59.830Z,3.30
2018-02-25T18:20:31.704Z,2.90
2018-02-25T18:23:04.367Z,3.40
2018-02-25T18:25:36.235Z,3.40
2018-02-25T18:28:08.904Z,3.47
2018-02-25T18:30:40.804Z,3.47
2018-02-25T18:33:12.700Z,3.10
2018-02-25T18:35:44.576Z,3.10
2018-02-25T18:38:16.463Z,3.60
2018-02-25T18:40:49.115Z,2.53
2018-02-25T18:43:21.003Z,3.47
2018-02-25T18:45:53.652Z,2.87
2018-02-25T18:48:25.581Z,3.37
2018-02-25T18:50:57.443Z,3.27
2018-02-25T18:53:29.584Z,3.10
2018-02-25T18:56:02.220Z,2.80
2018-02-25T18:58:34.172Z,3.17
2018-02-25T19:01:06.823Z,3.20
2018-02-25T19:03:38.710Z,3.10
2018-02-25T19:06:10.598Z,3.00
2018-02-25T19:08:43.495Z,2.37
2018-02-25T19:11:16.123Z,2.60
2018-02-25T19:13:48.015Z,2.53
2018-02-25T19:16:20.664Z,2.60
2018-02-25T19:18:53.699Z,2.67
2018-02-25T19:21:25.631Z,2.70
2018-02-25T19:23:57.541Z,2.95
2018-02-25T19:26:30.145Z,2.80
2018-02-25T19:29:02.161Z,3.27
2018-02-25T19:31:34.794Z,3.00
2018-02-25T19:34:06.682Z,3.20
2018-02-25T19:36:39.319Z,2.60
2018-02-25T19:39:11.353Z,2.73
2018-02-25T19:41:43.244Z,2.70
2018-02-25T19:44:15.123Z,2.80
2018-02-25T19:46:47.000Z,2.53
2018-02-25T19:49:18.888Z,3.27
2018-02-25T19:51:50.805Z,2.83
2018-02-25T19:54:22.732Z,3.07
2018-02-25T19:56:54.599Z,2.87
2018-02-25T19:59:26.487Z,2.90
2018-02-25T20:01:58.355Z,2.60
2018-02-25T20:04:30.241Z,2.77
2018-02-25T20:07:02.229Z,2.70
2018-02-25T20:09:34.109Z,2.80
2018-02-25T20:12:05.984Z,3.60
2018-02-25T20:14:37.878Z,3.10
2018-02-25T20:17:10.562Z,4.00
2018-02-25T20:19:43.289Z,3.67
2018-02-25T20:22:15.226Z,3.47
2018-02-25T20:24:47.165Z,3.17
2018-02-25T20:27:19.800Z,3.23
2018-02-25T20:29:51.687Z,3.10
2018-02-25T20:32:24.358Z,3.60
2018-02-25T20:34:56.276Z,3.50
